Portada
METAR-TAF:

METAR-TAF

Aeropuertos :

Aeropuerto de Toulouse-Blagnac

Toulouse, Francia

latitud: 43-38N, longitud: 001-22E, altitud: 152 m

Observación

El informe se hizo hace 35 minutos, a las 23:00 UTC
Viento 6 kt del noroeste
Temperatura 13°C
Humedad 62%
Presión 1028 hPa
Visibilidad 10 km o más
sin nubes por debajo de 1500 m y sin presencia de cumulonimbus.

METAR: LFBO 242300Z AUTO 32006KT CAVOK 13/06 Q1028 NOSIG

Hora: 01:35 (23:35 UTC)

Pronóstico

El informe se hizo hace 35 minutos, a las 23:00 UTC
Pronóstico válido del 25 a las 00 UTC al 26 a las 06 UTC
Viento 5 kt del oeste-noroeste
Visibilidad 10 km o más
sin nubes por debajo de 1500 m y sin presencia de cumulonimbus.
Evolucionando progresivamente
del 26 a las 02 UTC al 26 a las 04 UTC
Viento 12 kt del sureste

TAF: LFBO 242300Z 2500/2606 30005KT CAVOK BECMG 2602/2604 14012KT

Observaciones y pronósticos meteorológicos de más de 4000 aeropuertos (mensajes METAR y TAF).

Los puntos amarillos y rojos representan las estaciones disponibles.

Ponga el ratón en el punto deseado para ver el nombre de la estación.

Haga clic para ver las observaciones y los pronósticos meteorológicos.

Para cambiar el mapa : haga clic en los botones verdes con una cruz de color negro para hacer un zoom, en el botón verde con un guión para alejar o en las flechas verdes para mapas adyacentes.


METAR-TAF: